Terminal Aerodrome Forecast
Issued by NWS Topeka, KS

Home | Current Version | Previous Version | Graphics & Text | Print | Product List | Glossary On
Versions: 1 2 3 4 5 6 7 8 9 10 11 12 13 14 15 16 17
000
FTUS43 KTOP 161700
TAFTOP
TAF
KTOP 161726Z 1618/1718 12006KT P6SM SCT050
     FM170100 10004KT P6SM BKN050
     FM170900 12004KT 6SM BR VCTS SCT015 BKN040CB=

USA.gov is the U.S. government's official web portal to all federal, state and local government web resources and services.